首页
METAR-TAF:

METAR-TAF

机场 :

贝鲁特, 黎巴嫩

纬度: 33-49N, 经度: 035-29E, 海拔: 29米

当前天气观测

该预报发布于1小时和4分钟前的02:00 UTC
风速2节,风向东南
温度 21°C
湿度 69%
气压 1015 hPa
能见度10公里或以上
散云层高于2800英尺

METAR: OLBA 010200Z 13002KT 9999 SCT028 21/15 Q1015 NOSIG

时间: 06:04 (03:04 UTC)

预报

该预报发布于5小时和4分钟前的22:00 UTC
预报有效从01日的 00点(UTC)到 02日的 06点(UTC)
风速6节,风向
能见度10公里或以上
多云层高于2700英尺
成为
从 01日的 06点(UTC)到 01日的 09点(UTC)
能见度10公里或以上
1500米以下无云,无积雨云
成为
从 01日的 12点(UTC)到 01日的 15点(UTC)
多云层高于20000英尺
成为
从 01日的 20点(UTC)到 01日的 24点(UTC)
风速6节,风向东转东南
能见度10公里或以上
1500米以下无云,无积雨云

TAF: OLBA 312200Z 0100/0206 01006KT 9999 BKN027 BECMG 0106/0109 CAVOK BECMG 0112/0115 BKN200 BECMG 0120/0124 12006KT CAVOK

超过4000个机场的气象观测和天气预报(METAR&TAF报告)。

可查询的气象台以黄色和红色小点在地图上表示。

将鼠标移到小点上方,可查看气象台名称。

然后点击查看天气观测和预报。

如需切换地图:点击带黑十字的绿色按钮放大地图;点击带横线的绿色按钮缩小地图;或者点击绿色箭头查看邻近地区的地图。


METAR-TAF: